HZA2 OEGS-OERK
Flight info
| Callsign | HZA2 |
|---|---|
| Flight time | 0h 46m |
| Altitude | 35000 |
| Route | GAS G662 SIVIS |
| Aircraft | A320/M-SDE3FGHIRWY/LB1 |
Departure
| Time | 2026-04-25 08:21 |
|---|---|
| Airport | Prince Naif bin Abdulaziz International Airport (OEGS) |
Arrival
| Time | 2026-04-25 09:07 |
|---|---|
| Airport | King Khalid International Airport (OERK) |
| Time | Latitude | Longitude | Altitude | Speed | Heading |
|---|---|---|---|---|---|
| 2026-04-25 08:00 | 26.30436 | 43.76952 | 2138 ft | 0 kts | 243° |
| 2026-04-25 08:13 | 26.30438 | 43.76956 | 2138 ft | 2 kts | 243° |
| 2026-04-25 08:14 | 26.30453 | 43.76988 | 2137 ft | 2 kts | 243° |
| 2026-04-25 08:14 | 26.30460 | 43.77004 | 2137 ft | 2 kts | 243° |
| 2026-04-25 08:14 | 26.30470 | 43.77032 | 2135 ft | 5 kts | 279° |
| 2026-04-25 08:14 | 26.30451 | 43.77064 | 2137 ft | 2 kts | 334° |
| 2026-04-25 08:17 | 26.30452 | 43.77063 | 2137 ft | 1 kts | 334° |
| 2026-04-25 08:17 | 26.30469 | 43.77054 | 2137 ft | 5 kts | 334° |
| 2026-04-25 08:17 | 26.30507 | 43.77033 | 2138 ft | 7 kts | 334° |
| 2026-04-25 08:17 | 26.30559 | 43.77004 | 2138 ft | 9 kts | 333° |
| 2026-04-25 08:18 | 26.30626 | 43.76967 | 2137 ft | 13 kts | 333° |
| 2026-04-25 08:18 | 26.30728 | 43.76906 | 2135 ft | 19 kts | 331° |
| 2026-04-25 08:18 | 26.30851 | 43.76834 | 2134 ft | 23 kts | 332° |
| 2026-04-25 08:18 | 26.30993 | 43.76754 | 2131 ft | 20 kts | 333° |
| 2026-04-25 08:19 | 26.31136 | 43.76675 | 2130 ft | 24 kts | 333° |
| 2026-04-25 08:19 | 26.31259 | 43.76608 | 2132 ft | 17 kts | 336° |
| 2026-04-25 08:19 | 26.31347 | 43.76616 | 2133 ft | 10 kts | 17° |
| 2026-04-25 08:19 | 26.31418 | 43.76643 | 2134 ft | 13 kts | 32° |
| 2026-04-25 08:20 | 26.31466 | 43.76725 | 2133 ft | 10 kts | 66° |
| 2026-04-25 08:20 | 26.31412 | 43.76773 | 2132 ft | 14 kts | 154° |
| 2026-04-25 08:20 | 26.31206 | 43.76890 | 2131 ft | 73 kts | 154° |
| 2026-04-25 08:20 | 26.30501 | 43.77288 | 2136 ft | 150 kts | 153° |
| 2026-04-25 08:21 | 26.29510 | 43.77849 | 2824 ft | 161 kts | 157° |
| 2026-04-25 08:21 | 26.28502 | 43.78416 | 3768 ft | 164 kts | 156° |
| 2026-04-25 08:21 | 26.27443 | 43.79015 | 4329 ft | 181 kts | 156° |
| 2026-04-25 08:21 | 26.26256 | 43.79690 | 4767 ft | 204 kts | 156° |
| 2026-04-25 08:22 | 26.24918 | 43.80452 | 5255 ft | 228 kts | 156° |
| 2026-04-25 08:22 | 26.23425 | 43.81302 | 5798 ft | 254 kts | 155° |
| 2026-04-25 08:22 | 26.21794 | 43.82234 | 6539 ft | 268 kts | 154° |
| 2026-04-25 08:22 | 26.20116 | 43.83193 | 7412 ft | 275 kts | 154° |
| 2026-04-25 08:23 | 26.18408 | 43.84183 | 8281 ft | 280 kts | 152° |
| 2026-04-25 08:23 | 26.16907 | 43.85622 | 9172 ft | 293 kts | 129° |
| 2026-04-25 08:23 | 26.15970 | 43.87679 | 10045 ft | 303 kts | 115° |
| 2026-04-25 08:23 | 26.15163 | 43.89943 | 10494 ft | 327 kts | 114° |
| 2026-04-25 08:24 | 26.14316 | 43.92378 | 10996 ft | 345 kts | 114° |
| 2026-04-25 08:24 | 26.13448 | 43.94903 | 11779 ft | 353 kts | 114° |
| 2026-04-25 08:24 | 26.12561 | 43.97480 | 12631 ft | 360 kts | 114° |
| 2026-04-25 08:24 | 26.11683 | 43.99831 | 13382 ft | 365 kts | 117° |
| 2026-04-25 08:25 | 26.10693 | 44.02495 | 14222 ft | 370 kts | 115° |
| 2026-04-25 08:25 | 26.09758 | 44.05190 | 14955 ft | 377 kts | 115° |
| 2026-04-25 08:25 | 26.08841 | 44.07903 | 15700 ft | 382 kts | 114° |
| 2026-04-25 08:25 | 26.07904 | 44.10687 | 16483 ft | 387 kts | 114° |
| 2026-04-25 08:26 | 26.06947 | 44.13502 | 17255 ft | 391 kts | 115° |
| 2026-04-25 08:26 | 26.05965 | 44.16345 | 18031 ft | 396 kts | 115° |
| 2026-04-25 08:26 | 26.04959 | 44.19215 | 18737 ft | 401 kts | 116° |
| 2026-04-25 08:26 | 26.03932 | 44.22115 | 19394 ft | 405 kts | 116° |
| 2026-04-25 08:27 | 26.02890 | 44.25050 | 20042 ft | 410 kts | 116° |
| 2026-04-25 08:27 | 26.01839 | 44.28014 | 20694 ft | 415 kts | 117° |
| 2026-04-25 08:27 | 26.00771 | 44.31025 | 21357 ft | 421 kts | 117° |
| 2026-04-25 08:27 | 25.99690 | 44.34064 | 22011 ft | 425 kts | 117° |
| 2026-04-25 08:28 | 25.98601 | 44.37138 | 22655 ft | 430 kts | 117° |
| 2026-04-25 08:28 | 25.97502 | 44.40246 | 23330 ft | 434 kts | 117° |
| 2026-04-25 08:28 | 25.96392 | 44.43388 | 23908 ft | 438 kts | 117° |
| 2026-04-25 08:28 | 25.95275 | 44.46549 | 24482 ft | 442 kts | 117° |
| 2026-04-25 08:29 | 25.94146 | 44.49730 | 24867 ft | 444 kts | 118° |
| 2026-04-25 08:29 | 25.93010 | 44.52922 | 24999 ft | 444 kts | 118° |
| 2026-04-25 08:29 | 25.91891 | 44.56073 | 25039 ft | 434 kts | 118° |
| 2026-04-25 08:29 | 25.90795 | 44.59170 | 25035 ft | 429 kts | 118° |
| 2026-04-25 08:30 | 25.89701 | 44.62246 | 25026 ft | 427 kts | 118° |
| 2026-04-25 08:30 | 25.88616 | 44.65293 | 25037 ft | 422 kts | 118° |
| 2026-04-25 08:30 | 25.87533 | 44.68330 | 25040 ft | 422 kts | 118° |
| 2026-04-25 08:30 | 25.86465 | 44.71320 | 25045 ft | 422 kts | 118° |
| 2026-04-25 08:31 | 25.85227 | 44.74243 | 25044 ft | 416 kts | 124° |
| 2026-04-25 08:31 | 25.83887 | 44.77086 | 25044 ft | 416 kts | 124° |
| 2026-04-25 08:31 | 25.82548 | 44.79924 | 25043 ft | 416 kts | 124° |
| 2026-04-25 08:31 | 25.81212 | 44.82769 | 25047 ft | 415 kts | 124° |
| 2026-04-25 08:32 | 25.79877 | 44.85608 | 25042 ft | 415 kts | 124° |
| 2026-04-25 08:32 | 25.78542 | 44.88446 | 25039 ft | 414 kts | 124° |
| 2026-04-25 08:32 | 25.77202 | 44.91290 | 25038 ft | 415 kts | 124° |
| 2026-04-25 08:32 | 25.75866 | 44.94128 | 25034 ft | 415 kts | 124° |
| 2026-04-25 08:33 | 25.74533 | 44.96961 | 25033 ft | 415 kts | 124° |
| 2026-04-25 08:33 | 25.73199 | 44.99799 | 25034 ft | 415 kts | 124° |
| 2026-04-25 08:33 | 25.71864 | 45.02637 | 25027 ft | 415 kts | 124° |
| 2026-04-25 08:33 | 25.70530 | 45.05463 | 25027 ft | 413 kts | 124° |
| 2026-04-25 08:34 | 25.69195 | 45.08286 | 25013 ft | 414 kts | 124° |
| 2026-04-25 08:34 | 25.67853 | 45.11116 | 25011 ft | 415 kts | 125° |
| 2026-04-25 08:34 | 25.66512 | 45.13944 | 25018 ft | 415 kts | 124° |
| 2026-04-25 08:34 | 25.65167 | 45.16787 | 25010 ft | 416 kts | 124° |
| 2026-04-25 08:35 | 25.63832 | 45.19618 | 24781 ft | 413 kts | 124° |
| 2026-04-25 08:35 | 25.62508 | 45.22424 | 24551 ft | 409 kts | 124° |
| 2026-04-25 08:35 | 25.61190 | 45.25214 | 24327 ft | 407 kts | 124° |
| 2026-04-25 08:35 | 25.59878 | 45.27986 | 24103 ft | 406 kts | 124° |
| 2026-04-25 08:36 | 25.58571 | 45.30746 | 23884 ft | 404 kts | 124° |
| 2026-04-25 08:36 | 25.57267 | 45.33496 | 23650 ft | 403 kts | 124° |
| 2026-04-25 08:36 | 25.55984 | 45.36200 | 23416 ft | 401 kts | 124° |
| 2026-04-25 08:36 | 25.54686 | 45.38930 | 23155 ft | 399 kts | 124° |
| 2026-04-25 08:37 | 25.53394 | 45.41644 | 22888 ft | 398 kts | 124° |
| 2026-04-25 08:37 | 25.52105 | 45.44350 | 22630 ft | 396 kts | 124° |
| 2026-04-25 08:37 | 25.50822 | 45.47039 | 22365 ft | 395 kts | 124° |
| 2026-04-25 08:37 | 25.49543 | 45.49720 | 22107 ft | 393 kts | 124° |
| 2026-04-25 08:38 | 25.48271 | 45.52390 | 21856 ft | 392 kts | 124° |
| 2026-04-25 08:38 | 25.47000 | 45.55060 | 21608 ft | 391 kts | 124° |
| 2026-04-25 08:38 | 25.45735 | 45.57718 | 21350 ft | 390 kts | 123° |
| 2026-04-25 08:38 | 25.44470 | 45.60377 | 21099 ft | 390 kts | 123° |
| 2026-04-25 08:39 | 25.43208 | 45.63026 | 20859 ft | 389 kts | 123° |
| 2026-04-25 08:39 | 25.41947 | 45.65667 | 20598 ft | 386 kts | 123° |
| 2026-04-25 08:39 | 25.40693 | 45.68285 | 20180 ft | 384 kts | 123° |
| 2026-04-25 08:39 | 25.39446 | 45.70891 | 20037 ft | 383 kts | 123° |
| 2026-04-25 08:40 | 25.38203 | 45.73489 | 19558 ft | 385 kts | 123° |
| 2026-04-25 08:40 | 25.36932 | 45.76159 | 18700 ft | 398 kts | 120° |
| 2026-04-25 08:40 | 25.35998 | 45.79060 | 18091 ft | 405 kts | 106° |
| 2026-04-25 08:40 | 25.35665 | 45.82171 | 17455 ft | 409 kts | 92° |
| 2026-04-25 08:41 | 25.35634 | 45.85299 | 16885 ft | 407 kts | 92° |
| 2026-04-25 08:41 | 25.35583 | 45.88411 | 16399 ft | 403 kts | 93° |
| 2026-04-25 08:41 | 25.35520 | 45.91497 | 16000 ft | 398 kts | 93° |
| 2026-04-25 08:41 | 25.35453 | 45.94528 | 15567 ft | 393 kts | 93° |
| 2026-04-25 08:42 | 25.35386 | 45.97535 | 15193 ft | 387 kts | 92° |
| 2026-04-25 08:42 | 25.35333 | 46.00463 | 15079 ft | 375 kts | 92° |
| 2026-04-25 08:42 | 25.35284 | 46.03311 | 14822 ft | 368 kts | 92° |
| 2026-04-25 08:42 | 25.35237 | 46.06127 | 14474 ft | 364 kts | 92° |
| 2026-04-25 08:43 | 25.35186 | 46.08920 | 14079 ft | 363 kts | 92° |
| 2026-04-25 08:43 | 25.35128 | 46.11701 | 13674 ft | 361 kts | 92° |
| 2026-04-25 08:43 | 25.35066 | 46.14460 | 13292 ft | 357 kts | 92° |
| 2026-04-25 08:43 | 25.35035 | 46.16269 | 13098 ft | 353 kts | 90° |
| 2026-04-25 08:44 | 25.35131 | 46.19823 | 12924 ft | 338 kts | 88° |
| 2026-04-25 08:44 | 25.35256 | 46.22344 | 12793 ft | 317 kts | 86° |
| 2026-04-25 08:44 | 25.35360 | 46.23922 | 12711 ft | 304 kts | 86° |
| 2026-04-25 08:44 | 25.35528 | 46.26180 | 12518 ft | 288 kts | 85° |
| 2026-04-25 08:45 | 25.35696 | 46.28358 | 12117 ft | 283 kts | 86° |
| 2026-04-25 08:45 | 25.35859 | 46.30545 | 11563 ft | 293 kts | 86° |
| 2026-04-25 08:45 | 25.36077 | 46.33551 | 10757 ft | 295 kts | 86° |
| 2026-04-25 08:45 | 25.36239 | 46.35806 | 10180 ft | 294 kts | 87° |
| 2026-04-25 08:46 | 25.36397 | 46.38045 | 9570 ft | 291 kts | 88° |
| 2026-04-25 08:46 | 25.36381 | 46.39536 | 9218 ft | 283 kts | 100° |
| 2026-04-25 08:46 | 25.35846 | 46.41549 | 8833 ft | 265 kts | 120° |
| 2026-04-25 08:46 | 25.34853 | 46.43179 | 8480 ft | 248 kts | 138° |
| 2026-04-25 08:47 | 25.33561 | 46.44354 | 8125 ft | 235 kts | 154° |
| 2026-04-25 08:47 | 25.32144 | 46.45249 | 7763 ft | 234 kts | 154° |
| 2026-04-25 08:47 | 25.30755 | 46.46129 | 7253 ft | 233 kts | 154° |
| 2026-04-25 08:47 | 25.29329 | 46.47033 | 6670 ft | 234 kts | 154° |
| 2026-04-25 08:48 | 25.27921 | 46.47927 | 6073 ft | 233 kts | 155° |
| 2026-04-25 08:48 | 25.26518 | 46.48817 | 5473 ft | 232 kts | 154° |
| 2026-04-25 08:48 | 25.25135 | 46.49683 | 5084 ft | 222 kts | 154° |
| 2026-04-25 08:48 | 25.23822 | 46.50488 | 5000 ft | 209 kts | 153° |
| 2026-04-25 08:49 | 25.22589 | 46.51261 | 5011 ft | 202 kts | 154° |
| 2026-04-25 08:49 | 25.21364 | 46.52030 | 5007 ft | 204 kts | 154° |
| 2026-04-25 08:49 | 25.20140 | 46.52799 | 4999 ft | 206 kts | 153° |
| 2026-04-25 08:49 | 25.18873 | 46.53595 | 5003 ft | 207 kts | 153° |
| 2026-04-25 08:50 | 25.17643 | 46.54369 | 5003 ft | 206 kts | 154° |
| 2026-04-25 08:50 | 25.16401 | 46.55150 | 5007 ft | 205 kts | 154° |
| 2026-04-25 08:50 | 25.15171 | 46.55951 | 5005 ft | 206 kts | 152° |
| 2026-04-25 08:50 | 25.13984 | 46.56757 | 5007 ft | 192 kts | 152° |
| 2026-04-25 08:51 | 25.12851 | 46.57493 | 5009 ft | 187 kts | 153° |
| 2026-04-25 08:51 | 25.11741 | 46.58201 | 5004 ft | 179 kts | 154° |
| 2026-04-25 08:51 | 25.10693 | 46.58869 | 5023 ft | 172 kts | 153° |
| 2026-04-25 08:51 | 25.09670 | 46.59517 | 4848 ft | 167 kts | 153° |
| 2026-04-25 08:52 | 25.08682 | 46.60145 | 4643 ft | 161 kts | 153° |
| 2026-04-25 08:52 | 25.07726 | 46.60751 | 4442 ft | 153 kts | 152° |
| 2026-04-25 08:52 | 25.06843 | 46.61311 | 4256 ft | 140 kts | 152° |
| 2026-04-25 08:52 | 25.06000 | 46.61845 | 4086 ft | 140 kts | 151° |
| 2026-04-25 08:53 | 25.05163 | 46.62376 | 3919 ft | 138 kts | 151° |
| 2026-04-25 08:53 | 25.04331 | 46.62903 | 3746 ft | 137 kts | 150° |
| 2026-04-25 08:53 | 25.03506 | 46.63425 | 3572 ft | 136 kts | 149° |
| 2026-04-25 08:53 | 25.02685 | 46.63946 | 3398 ft | 136 kts | 149° |
| 2026-04-25 08:54 | 25.01863 | 46.64467 | 3220 ft | 136 kts | 148° |
| 2026-04-25 08:54 | 25.01042 | 46.64988 | 3042 ft | 136 kts | 154° |
| 2026-04-25 08:54 | 25.00220 | 46.65509 | 2815 ft | 136 kts | 150° |
| 2026-04-25 08:54 | 24.99393 | 46.66042 | 2592 ft | 138 kts | 153° |
| 2026-04-25 08:55 | 24.98554 | 46.66574 | 2352 ft | 140 kts | 150° |
| 2026-04-25 08:55 | 24.97702 | 46.67106 | 2161 ft | 140 kts | 150° |
| 2026-04-25 08:55 | 24.96867 | 46.67635 | 2037 ft | 136 kts | 150° |
| 2026-04-25 08:55 | 24.96037 | 46.68168 | 2247 ft | 151 kts | 149° |
| 2026-04-25 08:56 | 24.95147 | 46.68753 | 2985 ft | 150 kts | 147° |
| 2026-04-25 08:56 | 24.94253 | 46.69346 | 3680 ft | 150 kts | 151° |
| 2026-04-25 08:56 | 24.93302 | 46.69984 | 3969 ft | 171 kts | 150° |
| 2026-04-25 08:56 | 24.92198 | 46.70732 | 3992 ft | 198 kts | 150° |
| 2026-04-25 08:57 | 24.90992 | 46.71501 | 4000 ft | 202 kts | 159° |
| 2026-04-25 08:57 | 24.89615 | 46.71710 | 3994 ft | 204 kts | 186° |
| 2026-04-25 08:57 | 24.88308 | 46.71062 | 4001 ft | 217 kts | 216° |
| 2026-04-25 08:57 | 24.87508 | 46.69624 | 4038 ft | 230 kts | 253° |
| 2026-04-25 08:58 | 24.87644 | 46.67847 | 4263 ft | 243 kts | 291° |
| 2026-04-25 08:58 | 24.88711 | 46.66384 | 4533 ft | 250 kts | 315° |
| 2026-04-25 08:58 | 24.90005 | 46.65098 | 4768 ft | 250 kts | 316° |
| 2026-04-25 08:58 | 24.91307 | 46.63840 | 4951 ft | 249 kts | 316° |
| 2026-04-25 08:59 | 24.92616 | 46.62580 | 5005 ft | 251 kts | 316° |
| 2026-04-25 08:59 | 24.93934 | 46.61305 | 5002 ft | 253 kts | 315° |
| 2026-04-25 08:59 | 24.95251 | 46.60027 | 5015 ft | 251 kts | 315° |
| 2026-04-25 08:59 | 24.96550 | 46.58761 | 5009 ft | 249 kts | 314° |
| 2026-04-25 09:00 | 24.97842 | 46.57496 | 4999 ft | 249 kts | 314° |
| 2026-04-25 09:00 | 24.99131 | 46.56229 | 4800 ft | 245 kts | 314° |
| 2026-04-25 09:00 | 25.00387 | 46.54996 | 4581 ft | 238 kts | 315° |
| 2026-04-25 09:00 | 25.01603 | 46.53804 | 4444 ft | 232 kts | 315° |
| 2026-04-25 09:01 | 25.02973 | 46.52905 | 4306 ft | 230 kts | 346° |
| 2026-04-25 09:01 | 25.04547 | 46.52941 | 4172 ft | 226 kts | 24° |
| 2026-04-25 09:01 | 25.05817 | 46.53866 | 4084 ft | 218 kts | 49° |
| 2026-04-25 09:01 | 25.06754 | 46.55135 | 4000 ft | 210 kts | 66° |
| 2026-04-25 09:02 | 25.07373 | 46.56593 | 4007 ft | 209 kts | 73° |
| 2026-04-25 09:02 | 25.07673 | 46.58102 | 3999 ft | 199 kts | 99° |
| 2026-04-25 09:02 | 25.07425 | 46.59578 | 4007 ft | 196 kts | 107° |
| 2026-04-25 09:02 | 25.07129 | 46.61007 | 4006 ft | 188 kts | 108° |
| 2026-04-25 09:03 | 25.06844 | 46.62390 | 4021 ft | 179 kts | 109° |
| 2026-04-25 09:03 | 25.06532 | 46.63632 | 4012 ft | 157 kts | 119° |
| 2026-04-25 09:03 | 25.06016 | 46.64595 | 4003 ft | 136 kts | 135° |
| 2026-04-25 09:03 | 25.05367 | 46.65302 | 4023 ft | 129 kts | 147° |
| 2026-04-25 09:04 | 25.04604 | 46.65831 | 3992 ft | 131 kts | 154° |
| 2026-04-25 09:04 | 25.03812 | 46.66327 | 3668 ft | 130 kts | 153° |
| 2026-04-25 09:04 | 25.03028 | 46.66821 | 3317 ft | 127 kts | 151° |
| 2026-04-25 09:04 | 25.02254 | 46.67311 | 3163 ft | 128 kts | 150° |
| 2026-04-25 09:05 | 25.01489 | 46.67797 | 2976 ft | 127 kts | 151° |
| 2026-04-25 09:05 | 25.00705 | 46.68302 | 2770 ft | 133 kts | 150° |
| 2026-04-25 09:05 | 24.99900 | 46.68809 | 2556 ft | 130 kts | 148° |
| 2026-04-25 09:05 | 24.99099 | 46.69304 | 2360 ft | 131 kts | 148° |
| 2026-04-25 09:06 | 24.98312 | 46.69804 | 2170 ft | 129 kts | 150° |
| 2026-04-25 09:06 | 24.97537 | 46.70296 | 2042 ft | 127 kts | 148° |
| 2026-04-25 09:06 | 24.96875 | 46.70715 | 2032 ft | 88 kts | 150° |
| 2026-04-25 09:06 | 24.96458 | 46.70982 | 2030 ft | 50 kts | 150° |
| 2026-04-25 09:07 | 24.96238 | 46.71162 | 2033 ft | 22 kts | 125° |
| 2026-04-25 09:07 | 24.96178 | 46.71307 | 2037 ft | 21 kts | 99° |
| 2026-04-25 09:07 | 24.96223 | 46.71458 | 2033 ft | 22 kts | 61° |
| 2026-04-25 09:07 | 24.96302 | 46.71613 | 2034 ft | 25 kts | 61° |
| 2026-04-25 09:08 | 24.96386 | 46.71770 | 2036 ft | 22 kts | 60° |
| 2026-04-25 09:08 | 24.96467 | 46.71925 | 2037 ft | 25 kts | 60° |
| 2026-04-25 09:08 | 24.96544 | 46.72076 | 2033 ft | 14 kts | 60° |
| 2026-04-25 09:08 | 24.96558 | 46.72136 | 2036 ft | 7 kts | 119° |
| 2026-04-25 09:09 | 24.96511 | 46.72170 | 2033 ft | 10 kts | 149° |
| 2026-04-25 09:09 | 24.96441 | 46.72214 | 2038 ft | 13 kts | 151° |
| 2026-04-25 09:09 | 24.96374 | 46.72230 | 2034 ft | 9 kts | 229° |
| 2026-04-25 09:09 | 24.96354 | 46.72189 | 2031 ft | 0 kts | 241° |